WetterOnline ( https://www.wetteronline.ch )

Wetter aktuell Hamburg

Aktuelles Wetter: Hamburg/Fuhlsbüttel (15m)

6-stündlich | Neueste Meldungen
Ortszeit Temperatur Wetter
Fr, 26.04. 14:00 15.7° C wolkig
Fr, 26.04. 8:00 13.1° C bewölkt
Fr, 26.04. 2:00 17.7° C leicht bewölkt
Do, 25.04. 20:00 21.9° C leicht bewölkt
Do, 25.04. 14:00 21.1° C leicht bewölkt
Do, 25.04. 8:00 11.9° C fast wolkenlos
Do, 25.04. 2:00 16.5° C wolkig
Mi, 24.04. 20:00 22.1° C leicht bewölkt
Ortszeit Temperatur Wetter
Fr, 26.04. 14:20 17° C leicht bewölkt
Fr, 26.04. 14:10 16.1° C -
Fr, 26.04. 14:00 15.7° C wolkig
Fr, 26.04. 13:50 15.7° C -
Fr, 26.04. 13:40 16.5° C -
Fr, 26.04. 13:30 16.0° C -
Fr, 26.04. 13:00 15.8° C bewölkt
Fr, 26.04. 12:30 15.9° C -
Fr, 26.04. 12:00 15.9° C leicht bewölkt
Fr, 26.04. 11:30 15.8° C -
Fr, 26.04. 11:00 16.0° C leicht bewölkt
Ortszeit Relative Feuchte Sichtweite
Fr, 26.04. 14:00 59% 50 km
Fr, 26.04. 8:00 72% 50 km
Fr, 26.04. 2:00 45% 50 km
Do, 25.04. 20:00 35% 50 km
Do, 25.04. 14:00 36% 50 km
Do, 25.04. 8:00 82% 30 km
Do, 25.04. 2:00 63% 20 km
Mi, 24.04. 20:00 43% 30 km
Ortszeit Relative Feuchte Sichtweite
Fr, 26.04. 14:20 55% >10 km
Fr, 26.04. 14:10 61% -
Fr, 26.04. 14:00 59% 50 km
Fr, 26.04. 13:50 59% -
Fr, 26.04. 13:40 60% -
Fr, 26.04. 13:30 61% 40 km
Fr, 26.04. 13:00 63% 50 km
Fr, 26.04. 12:30 64% 27 km
Fr, 26.04. 12:00 62% 50 km
Fr, 26.04. 11:30 63% 20 km
Fr, 26.04. 11:00 61% 50 km
Ortszeit Niederschlagsmenge Niederschlagsart
Fr, 26.04. 14:00 0.0 l/m2 in 6 Std. -
Fr, 26.04. 8:00 0.1 l/m2 in 12 Std. Regen
Fr, 26.04. 2:00 0.0 l/m2 in 6 Std. -
Do, 25.04. 20:00 0.0 l/m2 in 12 Std. -
Do, 25.04. 14:00 0.0 l/m2 in 6 Std. -
Do, 25.04. 8:00 1 l/m2 in 12 Std. Schauer
Do, 25.04. 2:00 0.0 l/m2 in 6 Std. -
Mi, 24.04. 20:00 0.1 l/m2 in 12 Std. -
Ortszeit Niederschlagsmenge Niederschlagsart
Fr, 26.04. 14:20 keine Meldung -
Fr, 26.04. 14:10 keine Meldung -
Fr, 26.04. 14:00 0.0 l/m2 in 1 Std. -
Fr, 26.04. 13:50 keine Meldung -
Fr, 26.04. 13:40 keine Meldung -
Fr, 26.04. 13:30 0.0 l/m2 in 1 Std. -
Fr, 26.04. 13:00 0.0 l/m2 in 1 Std. -
Fr, 26.04. 12:30 0.0 l/m2 in 1 Std. -
Fr, 26.04. 12:00 0.0 l/m2 in 1 Std. -
Fr, 26.04. 11:30 0.0 l/m2 in 1 Std. -
Fr, 26.04. 11:00 0.0 l/m2 in 1 Std. -
Ortszeit Stärke Spitze Richtung
km/h Bft. km/h Grad Sektor
Fr, 26.04. 14:00 32 5 50 300° NW
Fr, 26.04. 8:00 9 2 31 320° NW
Fr, 26.04. 2:00 18 3 29 100° O
Do, 25.04. 20:00 18 3 47 110° O
Do, 25.04. 14:00 25 4 47 180° S
Do, 25.04. 8:00 18 3 43 170° S
Do, 25.04. 2:00 32 5 47 210° SW
Mi, 24.04. 20:00 22 4 43 120° SO
Ortszeit Stärke Spitze Richtung
km/h Bft. km/h Grad Sektor
Fr, 26.04. 14:20 31 5 - 310° NW
Fr, 26.04. 14:10 29 5 - 290° W
Fr, 26.04. 14:00 32 5 47 300° NW
Fr, 26.04. 13:50 32 5 - 300° NW
Fr, 26.04. 13:40 30 5 - 290° W
Fr, 26.04. 13:30 31 5 48 290° W
Fr, 26.04. 13:00 31 5 48 300° NW
Fr, 26.04. 12:30 33 5 48 290° W
Fr, 26.04. 12:00 33 5 50 300° NW
Fr, 26.04. 11:30 35 5 46 290° W
Fr, 26.04. 11:00 32 5 47 290° W
Ortszeit Untergrenze Bedeckung Gattung
total tief tief mittel hoch
Fr, 26.04. 14:00 780 m 5/8 4/8 Cu Ac -
Fr, 26.04. 8:00 1800 m 7/8 1/8 Sc Ac Ci
Fr, 26.04. 2:00 3900 m 7/8 7/8 - Ac -
Do, 25.04. 20:00 4500 m 5/8 2/8 - Ac Ci
Do, 25.04. 14:00 1800 m 5/8 1/8 Cu Ac Ci
Do, 25.04. 8:00 360 m 1/8 1/8 Cu Ac Ci
Do, 25.04. 2:00 1440 m 8/8 1/8 Sc Ac -
Mi, 24.04. 20:00 3600 m 2/8 1/8 - Ac Ci
Ortszeit Bedeckungsgrad in Achtel und Wolkenuntergrenze
Fr, 26.04. 14:20 1-2(870m) 3-4(1080m)
Fr, 26.04. 14:10 -
Fr, 26.04. 14:00 1(780m) 4(900m)
Fr, 26.04. 13:50 -
Fr, 26.04. 13:40 -
Fr, 26.04. 13:30 -
Fr, 26.04. 13:00 7(780m)
Fr, 26.04. 12:30 -
Fr, 26.04. 12:00 2(720m) 4(9000m)
Fr, 26.04. 11:30 -
Fr, 26.04. 11:00 1(810m) 5(9000m)
Ortszeit Luftdruck NN (hPa) Tendenz (hPa in 3 Std.)
Fr, 26.04. 14:00 1011 + 1,7
Fr, 26.04. 8:00 1008 + 0,1
Fr, 26.04. 2:00 1008 - 0,7
Do, 25.04. 20:00 1009 - 0,4
Do, 25.04. 14:00 1010 - 0,2
Do, 25.04. 8:00 1010 + 2,2
Do, 25.04. 2:00 1005 + 1,4
Mi, 24.04. 20:00 1003 + 0,1
Ortszeit Luftdruck NN (hPa) Tendenz (hPa in 3 Std.)
Fr, 26.04. 14:20 1010 keine Meldung
Fr, 26.04. 14:10 1010 keine Meldung
Fr, 26.04. 14:00 1011 + 1,7
Fr, 26.04. 13:50 1011 keine Meldung
Fr, 26.04. 13:40 1011 keine Meldung
Fr, 26.04. 13:30 1011 + 1,8
Fr, 26.04. 13:00 1010 + 1,8
Fr, 26.04. 12:30 1010 + 1,8
Fr, 26.04. 12:00 1010 + 1,8
Fr, 26.04. 11:30 1009 + 1,4
Fr, 26.04. 11:00 1009 + 1,3
Ortszeit Schneehöhe (cm)
Fr, 26.04. 14:00 0
Fr, 26.04. 8:00 0
Fr, 26.04. 2:00 0
Do, 25.04. 20:00 0
Do, 25.04. 14:00 0
Do, 25.04. 8:00 0
Do, 25.04. 2:00 0
Mi, 24.04. 20:00 0
Ortszeit Schneehöhe (cm)
Fr, 26.04. 14:20 -
Fr, 26.04. 14:10 -
Fr, 26.04. 14:00 0
Fr, 26.04. 13:50 -
Fr, 26.04. 13:40 -
Fr, 26.04. 13:30 -
Fr, 26.04. 13:00 -
Fr, 26.04. 12:30 -
Fr, 26.04. 12:00 -
Fr, 26.04. 11:30 -
Fr, 26.04. 11:00 -
Link zu dieser Seite / Seite empfehlen

Das Wetter in ...